Flight Track Log - Related Links

Times and Time Zones

All times are in EDT time to prevent confusion due to time zone crossing. See the RPA3237 flight status page for this flight to view local times or setup timezone preferences in your user account.

Time Position Orientation Groundspeed Altitude Reporting Facility
EDT Latitude Longitude Course Direction KTS MPH feet Rate Location/Type
Wed 02:29:45 PM 38.8333 -77.0333 236° Southwest 153 176 800  Level Potomac TRACON
Wed 02:30:45 PM 38.7833 -77.0333 180° South 200 230 2,300 1,700 Climbing Potomac TRACON
Wed 02:31:45 PM 38.7500 -77.0833 229° Southwest 251 289 4,200 1,832 Climbing Potomac TRACON
Wed 02:32:00 PM 38.6141 -77.4744 247° West  Level FlightAware Approximate
Wed 02:32:20 PM 38.7367 -77.1486 255° West 275 316 5,200  Level Washington Center
Wed 02:33:00 PM 38.5688 -77.5958 237° Southwest  Level FlightAware Approximate
Wed 02:33:18 PM 38.7269 -77.2494 263° West 280 322 7,800  Level Washington Center
Wed 02:34:00 PM 38.5071 -77.7049 233° Southwest  Level FlightAware Approximate
Wed 02:34:18 PM 38.7506 -77.3378 289° West 290 334 10,300  Level Washington Center
Wed 02:34:46 PM 38.7667 -77.3833 294° West 294 338 11,400 2,114 Climbing Potomac TRACON
Wed 02:35:00 PM 38.4436 -77.8110 236° Southwest  Level FlightAware Approximate
Wed 02:35:46 PM 38.7167 -77.4667 232° Southwest 298 343 13,400  Level Potomac TRACON
Wed 02:36:47 PM 38.6667 -77.5333 226° Southwest 300 345 15,600 1,519 Climbing Potomac TRACON
Wed 02:38:20 PM 38.5683 -77.6575 225° Southwest 300 345 17,300 1,020 Climbing Washington Center
Wed 02:39:20 PM 38.4958 -77.7511 225° Southwest 330 380 18,200 1,068 Climbing Washington Center
Wed 02:40:18 PM 38.4375 -77.8606 236° Southwest 362 417 19,400 1,322 Climbing Washington Center
Wed 02:41:18 PM 38.3811 -77.9756 238° Southwest 380 437 20,800 1,250 Climbing Washington Center
Wed 02:42:18 PM 38.3328 -78.0931 242° Southwest 387 445 21,900 1,140 Climbing Washington Center
Wed 02:43:19 PM 38.2800 -78.2183 242° Southwest 393 452 23,100 1,328 Climbing Washington Center
Wed 02:44:20 PM 38.2294 -78.3408 242° Southwest 393 452 24,600 1,815 Climbing Washington Center
Wed 02:45:18 PM 38.1764 -78.4631 241° Southwest 393 452 26,700 1,627 Climbing Washington Center
Wed 02:46:18 PM 38.1319 -78.5747 243° Southwest 393 452 27,800 1,000 Climbing Washington Center
Wed 02:47:18 PM 38.0808 -78.6994 243° Southwest 393 452 28,700 942 Climbing Washington Center
Wed 02:48:19 PM 38.0253 -78.8261 241° Southwest 405 466 29,700 984 Climbing Washington Center
Wed 02:49:20 PM 37.9653 -78.9686 242° Southwest 410 472 30,700 1,068 Climbing Washington Center
Wed 02:50:17 PM 37.9072 -79.1003 241° Southwest 415 478 31,800 966 Climbing Washington Center
Wed 02:51:18 PM 37.8472 -79.2261 239° Southwest 415 478 32,600 787 Climbing Washington Center
Wed 02:52:19 PM 37.7894 -79.3392 237° Southwest 421 484 33,400 836 Climbing Washington Center
Wed 02:53:20 PM 37.7292 -79.4622 238° Southwest 426 490 34,300 908 Climbing Washington Center
Wed 02:54:18 PM 37.6581 -79.5950 236° Southwest 426 490 35,200 756 Climbing Washington Center
Wed 02:55:19 PM 37.5975 -79.7228 239° Southwest 426 490 35,800 397 Climbing Washington Center
Wed 02:56:19 PM 37.5347 -79.8425 237° Southwest 426 490 36,000 100 Climbing Washington Center
Wed 02:57:19 PM 37.4786 -79.9572 238° Southwest 431 496 36,000  Level Washington Center
Wed 02:58:56 PM 37.3672 -80.1692 237° Southwest 433 498 36,000  Level Atlanta Center
Wed 02:59:56 PM 37.2933 -80.2772 229° Southwest 428 493 36,000  Level Atlanta Center
Wed 03:00:56 PM 37.2133 -80.3825 226° Southwest 421 484 36,000  Level Atlanta Center
Wed 03:01:56 PM 37.1494 -80.4844 232° Southwest 421 484 36,000  Level Atlanta Center
Wed 03:02:56 PM 37.0864 -80.6097 238° Southwest 421 484 36,000  Level Atlanta Center
Wed 03:03:56 PM 37.0250 -80.7292 237° Southwest 427 491 36,000  Level Atlanta Center
Wed 03:04:56 PM 36.9658 -80.8511 239° Southwest 427 491 36,000  Level Atlanta Center
Wed 03:05:56 PM 36.8983 -80.9839 238° Southwest 420 483 36,000  Level Atlanta Center
Wed 03:06:56 PM 36.8367 -81.1081 238° Southwest 420 483 36,000  Level Atlanta Center
Wed 03:07:56 PM 36.7769 -81.2269 238° Southwest 415 478 36,000  Level Atlanta Center
Wed 03:08:56 PM 36.7269 -81.3322 239° Southwest 408 470 36,000  Level Atlanta Center
Wed 03:09:56 PM 36.6672 -81.4533 238° Southwest 408 470 36,000  Level Atlanta Center
Wed 03:10:56 PM 36.6069 -81.5717 238° Southwest 413 475 36,000  Level Atlanta Center
Wed 03:11:56 PM 36.5428 -81.6925 237° Southwest 419 482 36,000  Level Atlanta Center
Wed 03:12:56 PM 36.4803 -81.8208 239° Southwest 419 482 36,000  Level Atlanta Center
Wed 03:13:56 PM 36.4133 -81.9206 230° Southwest 419 482 36,000  Level Atlanta Center
Wed 03:14:56 PM 36.3358 -82.0233 227° Southwest 414 476 36,000  Level Atlanta Center
Wed 03:15:56 PM 36.2625 -82.1333 230° Southwest 414 476 36,000  Level Atlanta Center
Wed 03:16:56 PM 36.2100 -82.2581 242° Southwest 419 482 36,000  Level Atlanta Center
Wed 03:17:56 PM 36.1514 -82.3803 239° Southwest 419 482 36,000  Level Atlanta Center
Wed 03:18:56 PM 36.0925 -82.4994 239° Southwest 424 488 36,000  Level Atlanta Center
Wed 03:19:56 PM 36.0314 -82.6214 238° Southwest 419 482 36,000  Level Atlanta Center
Wed 03:20:56 PM 35.9681 -82.7533 239° Southwest 413 475 36,000  Level Atlanta Center
Wed 03:21:56 PM 35.9131 -82.8772 241° Southwest 408 470 36,000  Level Atlanta Center
Wed 03:22:56 PM 35.9017 -83.0211 264° West 415 478 36,000  Level Atlanta Center
Wed 03:23:56 PM 35.8967 -83.1672 268° West 429 494 36,000  Level Atlanta Center
Wed 03:24:56 PM 35.8872 -83.3083 265° West 429 494 36,000  Level Atlanta Center
Wed 03:25:56 PM 35.8692 -83.4467 261° West 423 487 36,000  Level Atlanta Center
Wed 03:26:56 PM 35.8069 -83.5650 237° Southwest 406 467 36,000  Level Atlanta Center
Wed 03:27:56 PM 35.7428 -83.6703 233° Southwest 401 461 36,000  Level Atlanta Center
Wed 03:28:56 PM 35.6742 -83.7806 233° Southwest 401 461 36,000  Level Atlanta Center
Wed 03:29:56 PM 35.6075 -83.8906 233° Southwest 406 467 36,000  Level Atlanta Center
Wed 03:30:56 PM 35.5492 -83.9878 234° Southwest 406 467 36,000  Level Atlanta Center
Wed 03:31:56 PM 35.4806 -84.0950 232° Southwest 406 467 36,000  Level Atlanta Center
Wed 03:32:56 PM 35.4136 -84.2019 232° Southwest 406 467 36,000  Level Atlanta Center
Wed 03:33:56 PM 35.3486 -84.3086 233° Southwest 406 467 36,000  Level Atlanta Center
Wed 03:34:56 PM 35.2817 -84.4153 232° Southwest 401 461 36,000  Level Atlanta Center
Wed 03:35:56 PM 35.2125 -84.5242 232° Southwest 401 461 36,000  Level Atlanta Center
Wed 03:36:56 PM 35.1472 -84.6281 232° Southwest 401 461 36,000  Level Atlanta Center
Wed 03:38:08 PM 35.0800 -84.7342 232° Southwest 401 461 36,000  Level Atlanta Center
Wed 03:39:08 PM 34.9978 -84.8628 232° Southwest 401 461 36,000  Level Atlanta Center
Wed 03:40:08 PM 34.9281 -84.9661 231° Southwest 396 456 36,000  Level Atlanta Center
Wed 03:41:08 PM 34.8461 -85.0511 220° Southwest 396 456 36,000  Level Atlanta Center
Wed 03:42:08 PM 34.7639 -85.1411 222° Southwest 396 456 36,000  Level Atlanta Center
Wed 03:43:08 PM 34.6858 -85.2361 225° Southwest 396 456 36,000  Level Atlanta Center
Wed 03:44:08 PM 34.6244 -85.3386 234° Southwest 396 456 36,000  Level Atlanta Center
Wed 03:45:08 PM 34.5583 -85.4486 234° Southwest 396 456 36,000  Level Atlanta Center
Wed 03:46:08 PM 34.4925 -85.5561 233° Southwest 401 461 36,000  Level Atlanta Center
Wed 03:47:08 PM 34.4283 -85.6656 235° Southwest 401 461 36,000  Level Atlanta Center
Wed 03:48:08 PM 34.3644 -85.7753 235° Southwest 401 461 36,000  Level Atlanta Center
Wed 03:49:08 PM 34.3003 -85.8744 232° Southwest 401 461 36,000  Level Atlanta Center
Wed 03:50:08 PM 34.2339 -85.9836 234° Southwest 401 461 36,000  Level Atlanta Center
Wed 03:51:08 PM 34.1675 -86.0900 233° Southwest 401 461 36,000  Level Atlanta Center
Wed 03:52:08 PM 34.1031 -86.1964 234° Southwest 401 461 36,000  Level Atlanta Center
Wed 03:53:08 PM 34.0386 -86.3000 233° Southwest 401 461 36,000  Level Atlanta Center
Wed 03:54:08 PM 33.9761 -86.4036 234° Southwest 401 461 36,000  Level Atlanta Center
Wed 03:55:08 PM 33.9114 -86.5069 233° Southwest 401 461 36,000  Level Atlanta Center
Wed 03:56:08 PM 33.8489 -86.6100 234° Southwest 396 456 36,000  Level Atlanta Center
Wed 03:57:08 PM 33.7842 -86.7106 232° Southwest 396 456 36,000  Level Atlanta Center
Wed 03:58:08 PM 33.7214 -86.8136 234° Southwest 396 456 36,000  Level Atlanta Center
Wed 03:59:08 PM 33.6583 -86.9139 233° Southwest 391 450 36,000  Level Atlanta Center
Wed 04:00:08 PM 33.5936 -87.0114 231° Southwest 386 444 36,000  Level Atlanta Center
Wed 04:01:08 PM 33.5286 -87.1089 231° Southwest 386 444 36,000  Level Atlanta Center
Wed 04:02:08 PM 33.4633 -87.2061 231° Southwest 386 444 36,000  Level Atlanta Center
Wed 04:03:08 PM 33.4003 -87.3033 232° Southwest 386 444 36,000  Level Atlanta Center
Wed 04:04:08 PM 33.3308 -87.4078 232° Southwest 386 444 36,000  Level Atlanta Center
Wed 04:06:20 PM 33.1928 -87.6117 231° Southwest 376 433 36,000  Level Memphis Center
Wed 04:07:21 PM 33.1281 -87.7081 231° Southwest 376 433 36,000  Level Memphis Center
Wed 04:08:21 PM 33.0631 -87.8042 231° Southwest 376 433 36,000  Level Memphis Center
Wed 04:09:20 PM 32.9983 -87.9000 231° Southwest 376 433 36,000  Level Memphis Center
Wed 04:10:21 PM 32.9294 -88.0058 232° Southwest 376 433 36,000  Level Memphis Center
Wed 04:11:20 PM 32.8644 -88.1017 231° Southwest 376 433 36,000  Level Memphis Center
Wed 04:12:20 PM 32.7992 -88.1997 232° Southwest 376 433 36,000  Level Memphis Center
Wed 04:13:20 PM 32.7319 -88.2953 230° Southwest 376 433 36,000  Level Memphis Center
Wed 04:14:20 PM 32.6689 -88.3903 232° Southwest 376 433 36,000  Level Memphis Center
Wed 04:15:20 PM 32.6036 -88.4856 231° Southwest 376 433 36,000  Level Memphis Center
Wed 04:16:20 PM 32.5361 -88.5806 230° Southwest 376 433 36,000  Level Memphis Center
Wed 04:17:20 PM 32.4706 -88.6781 231° Southwest 381 438 36,000 -150 Level Memphis Center
Wed 04:18:20 PM 32.4008 -88.7703 228° Southwest 381 438 35,700 -600 Descending Memphis Center
Wed 04:19:20 PM 32.3247 -88.8578 224° Southwest 381 438 34,800 -950 Descending Memphis Center
Wed 04:20:20 PM 32.2419 -88.9378 219° Southwest 381 438 33,800 -1,000 Descending Memphis Center
Wed 04:21:20 PM 32.1594 -89.0175 219° Southwest 387 445 32,800 -1,000 Descending Memphis Center
Wed 04:22:20 PM 32.0769 -89.0997 220° Southwest 392 451 31,800 -987 Descending Memphis Center
Wed 04:23:58 PM 31.9422 -89.2267 219° Southwest 395 455 30,200 -975 Descending Houston Center
Wed 04:25:00 PM 31.8550 -89.3114 220° Southwest 406 467 29,200 -968 Descending Houston Center
Wed 04:26:02 PM 31.7672 -89.3953 219° Southwest 408 470 28,200 -726 Descending Houston Center
Wed 04:27:04 PM 31.6792 -89.4786 219° Southwest 409 471 27,700 -871 Descending Houston Center
Wed 04:28:06 PM 31.5750 -89.5778 219° Southwest 415 478 26,400 -1,161 Descending Houston Center
Wed 04:29:08 PM 31.4872 -89.6611 219° Southwest 410 472 25,300 -1,113 Descending Houston Center
Wed 04:30:10 PM 31.3997 -89.7453 219° Southwest 406 467 24,100 -1,104 Descending Houston Center
Wed 04:31:13 PM 31.3122 -89.8267 218° Southwest 403 464 23,000 -1,152 Descending Houston Center
Wed 04:32:15 PM 31.2100 -89.8828 205° Southwest 406 467 21,700 -1,548 Descending Houston Center
Wed 04:33:17 PM 31.0861 -89.9419 202° Southwest 403 464 19,800 -1,742 Descending Houston Center
Wed 04:34:19 PM 30.9886 -89.9889 202° Southwest 385 443 18,100 -1,597 Descending Houston Center
Wed 04:35:21 PM 30.8908 -90.0356 202° Southwest 381 438 16,500 -1,600 Descending Houston Center
Wed 04:35:49 PM 30.8353 -90.0642 204° Southwest 376 433 15,700 -1,452 Descending Houston Center
Wed 04:36:23 PM 30.7950 -90.0811 200° South 375 432 15,000 -1,522 Descending Houston Center
Wed 04:36:56 PM 30.7322 -90.1119 203° Southwest 368 423 14,000 -1,452 Descending Houston Center
Wed 04:37:25 PM 30.7006 -90.1172 188° South 367 422 13,500 -1,475 Descending Houston Center
Wed 04:37:57 PM 30.6364 -90.1161 179° South 342 394 12,500 -1,810 Descending Houston Center
Wed 04:38:28 PM 30.5892 -90.1108 175° South 336 387 11,600 -1,636 Descending Houston Center
Wed 04:38:52 PM 30.5547 -90.1097 178° South 316 364 11,000 -1,355 Descending Houston Center
Wed 04:39:30 PM 30.5053 -90.1067 177° South 312 359 10,200 -1,300 Descending Houston Center
Wed 04:39:52 PM 30.4731 -90.1036 175° South 294 338 9,700 -968 Descending Houston Center
Wed 04:40:32 PM 30.4250 -90.0989 175° South 297 342 9,200 -689 Descending Houston Center
Wed 04:40:53 PM 30.3911 -90.0975 178° South 290 334 9,000 -290 Descending Houston Center
Wed 04:41:34 PM 30.3447 -90.0917 174° South 293 337 8,900  Descending Houston Center
Wed 04:41:54 PM 30.3031 -90.0867 174° South 294 338 9,000 -194 Climbing Houston Center
Wed 04:42:36 PM 30.2644 -90.0850 178° South 292 336 8,700 -1,075 Descending Houston Center
Wed 04:43:01 PM 30.2197 -90.0950 191° South 277 319 7,800 -2,032 Descending Houston Center
Wed 04:43:38 PM 30.1747 -90.1053 191° South 277 319 6,600 -1,770 Descending Houston Center
Wed 04:44:02 PM 30.1431 -90.1125 191° South 274 315 6,000 -1,548 Descending Houston Center
Wed 04:44:40 PM 30.1003 -90.1261 195° South 276 318 5,000 -1,000 Descending Houston Center
Wed 04:45:02 PM 30.0706 -90.1347 194° South 268 308 5,000 -97 Level Houston Center
Wed 04:45:42 PM 30.0322 -90.1486 197° South 268 308 4,900  Descending Houston Center
Wed 04:46:03 PM 30.0064 -90.1567 195° South 228 262 5,000 -97 Climbing Houston Center
Wed 04:46:44 PM 29.9719 -90.1689 197° South 247 284 4,800 -492 Descending Houston Center
Wed 04:47:04 PM 29.9486 -90.1758 194° South 209 241 4,500 -952 Descending Houston Center
Wed 04:47:47 PM 29.9175 -90.1875 198° South 225 259 3,800 -1,075 Descending Houston Center
Wed 04:48:11 PM 29.8931 -90.2044 211° Southwest 187 215 3,300 -1,250 Descending Houston Center

Login

Don't have an account? Register now (free) for customized features, flight alerts, and more!